Time;durP1;ratioP1;P1;durP2;ratioP2;P2;SDS_P1;SDS_P2;PMS_P1;PMS_P2;Temp;Humidity;BMP_temperature;BMP_pressure;BME280_temperature;BME280_humidity;BME280_pressure;Samples;Min_cycle;Max_cycle;Signal;HPM_P1;HPM_P2
2023/09/02 00:01:40;;;;;;;7.47;6.78;;;21.40;99.90;;;;;;5144851;28;20121;-73
2023/09/02 00:04:11;;;;;;;8.23;7.43;;;21.40;99.90;;;;;;5144866;28;20023;-74
2023/09/02 00:06:43;;;;;;;8.75;7.70;;;21.40;99.90;;;;;;5144765;28;20082;-73
2023/09/02 00:09:15;;;;;;;8.48;7.68;;;21.30;99.90;;;;;;5144952;28;20514;-74
2023/09/02 00:11:46;;;;;;;8.05;7.30;;;21.30;99.90;;;;;;5143333;28;20051;-72
2023/09/02 00:14:16;;;;;;;8.60;7.65;;;21.40;99.90;;;;;;5144866;28;20443;-72
2023/09/02 00:16:47;;;;;;;8.27;7.55;;;21.50;99.90;;;;;;5144863;28;20056;-74
2023/09/02 00:19:18;;;;;;;10.13;9.13;;;21.50;99.90;;;;;;5144808;28;20023;-72
2023/09/02 00:21:49;;;;;;;9.05;8.38;;;21.50;99.90;;;;;;5144849;28;20033;-72
2023/09/02 00:24:19;;;;;;;9.27;8.57;;;21.50;99.90;;;;;;5144746;28;20804;-73
2023/09/02 00:26:50;;;;;;;10.05;9.18;;;21.40;99.90;;;;;;5144701;28;20034;-72
2023/09/02 00:29:21;;;;;;;9.70;8.93;;;21.40;99.90;;;;;;5144779;28;20043;-73
2023/09/02 00:31:52;;;;;;;11.55;8.95;;;21.40;99.90;;;;;;5144735;28;20027;-72
2023/09/02 00:34:23;;;;;;;8.70;8.00;;;21.40;99.90;;;;;;5144971;28;20054;-74
2023/09/02 00:36:53;;;;;;;8.27;7.57;;;21.40;99.90;;;;;;5145052;28;20387;-72
2023/09/02 00:39:24;;;;;;;8.70;7.78;;;21.40;99.90;;;;;;5144675;28;20015;-74
2023/09/02 00:41:59;;;;;;;9.40;8.50;;;21.50;99.90;;;;;;5143197;28;20118;-75
2023/09/02 00:44:30;;;;;;;8.38;7.68;;;21.50;99.90;;;;;;5144821;28;20008;-74
2023/09/02 00:47:02;;;;;;;8.85;6.80;;;21.50;99.90;;;;;;5143423;28;20454;-73
2023/09/02 00:49:33;;;;;;;8.57;6.97;;;21.60;99.90;;;;;;5144569;28;20027;-72
2023/09/02 00:52:04;;;;;;;7.93;7.28;;;21.50;99.90;;;;;;5144543;28;20366;-72
2023/09/02 00:54:35;;;;;;;9.23;8.32;;;21.50;99.90;;;;;;5144508;28;20023;-73
2023/09/02 00:57:06;;;;;;;8.30;7.55;;;21.80;99.90;;;;;;5143124;28;20042;-74
2023/09/02 00:59:39;;;;;;;8.70;7.82;;;21.80;99.90;;;;;;5144451;28;20023;-72
2023/09/02 01:02:11;;;;;;;9.55;8.55;;;21.70;99.90;;;;;;5144474;28;20027;-73
2023/09/02 01:04:42;;;;;;;8.82;8.02;;;21.60;99.90;;;;;;5143248;28;20085;-73
2023/09/02 01:07:14;;;;;;;10.85;9.82;;;21.60;99.90;;;;;;5146822;28;20046;-73
2023/09/02 01:09:46;;;;;;;10.35;9.35;;;21.70;99.90;;;;;;5146470;28;20058;-74
2023/09/02 01:12:17;;;;;;;9.90;9.05;;;21.90;99.90;;;;;;5147898;28;20031;-72
2023/09/02 01:14:48;;;;;;;11.60;9.18;;;21.80;99.90;;;;;;5147965;28;20093;-72
2023/09/02 01:17:19;;;;;;;10.00;9.10;;;21.70;99.90;;;;;;5147921;28;20434;-74
2023/09/02 01:19:51;;;;;;;9.43;8.48;;;21.80;99.90;;;;;;5147821;28;20023;-75
2023/09/02 01:22:54;;;;;;;9.05;8.25;;;22.00;99.90;;;;;;5147433;28;20105;-73
2023/09/02 01:25:50;;;;;;;10.35;9.45;;;22.00;99.90;;;;;;5146138;28;20506;-73
2023/09/02 01:28:28;;;;;;;10.48;9.48;;;21.90;99.90;;;;;;5147297;28;20042;-72
2023/09/02 01:31:02;;;;;;;9.57;8.77;;;22.00;99.90;;;;;;5146767;28;20419;-72
2023/09/02 01:33:33;;;;;;;9.50;8.52;;;22.10;99.90;;;;;;5147594;28;20109;-73
2023/09/02 01:36:04;;;;;;;8.80;8.10;;;22.10;99.90;;;;;;5147599;28;20438;-74
2023/09/02 01:38:36;;;;;;;9.13;8.23;;;22.10;99.90;;;;;;5147366;28;20037;-75
2023/09/02 01:41:08;;;;;;;9.35;8.45;;;22.30;99.90;;;;;;5147297;28;20050;-72
2023/09/02 01:43:39;;;;;;;8.68;7.88;;;22.20;99.90;;;;;;5147386;28;20027;-75
2023/09/02 01:46:11;;;;;;;9.00;8.10;;;22.20;99.90;;;;;;5146213;28;20025;-75
2023/09/02 01:48:42;;;;;;;8.02;7.32;;;22.20;99.90;;;;;;5147371;28;20035;-73
2023/09/02 01:51:23;;;;;;;9.13;7.60;;;22.30;99.90;;;;;;5147584;28;20090;-75
2023/09/02 01:54:03;;;;;;;9.15;8.25;;;22.30;99.90;;;;;;5147391;28;20093;-75
2023/09/02 01:56:35;;;;;;;8.23;7.40;;;22.40;99.90;;;;;;5147296;28;20026;-72
2023/09/02 01:59:06;;;;;;;11.68;7.72;;;22.40;99.90;;;;;;5147139;28;20061;-74
2023/09/02 02:01:37;;;;;;;7.53;6.93;;;22.50;99.90;;;;;;5147298;28;20029;-72
2023/09/02 02:04:23;;;;;;;8.57;7.68;;;22.50;99.90;;;;;;5145803;28;20058;-72
2023/09/02 02:06:59;;;;;;;8.25;7.45;;;22.60;99.90;;;;;;5145708;28;20035;-72
2023/09/02 02:09:35;;;;;;;9.30;7.72;;;22.60;99.90;;;;;;5146937;28;20030;-73
2023/09/02 02:12:08;;;;;;;7.53;6.90;;;22.60;99.90;;;;;;5145588;28;20495;-73
2023/09/02 02:14:39;;;;;;;8.93;7.97;;;22.50;99.90;;;;;;5146916;28;20035;-75
2023/09/02 02:17:10;;;;;;;8.50;7.60;;;22.60;99.90;;;;;;5146354;28;20482;-75
2023/09/02 02:19:42;;;;;;;9.15;8.27;;;22.60;99.90;;;;;;5146641;28;20137;-72
2023/09/02 02:22:13;;;;;;;8.68;7.78;;;22.50;99.90;;;;;;5146075;28;20015;-73
2023/09/02 02:24:44;;;;;;;9.15;8.00;;;22.70;99.90;;;;;;5146428;28;20501;-73
2023/09/02 02:27:15;;;;;;;7.57;6.88;;;22.70;99.90;;;;;;5145233;28;20385;-72
2023/09/02 02:29:45;;;;;;;8.70;7.80;;;22.60;99.90;;;;;;5145232;28;20056;-74
2023/09/02 02:32:16;;;;;;;8.88;8.05;;;22.70;99.90;;;;;;5143985;28;20114;-74
2023/09/02 02:34:47;;;;;;;8.48;7.43;;;22.60;99.90;;;;;;5145204;28;20061;-74
2023/09/02 02:37:18;;;;;;;7.80;7.10;;;22.60;99.90;;;;;;5145292;28;20101;-72
2023/09/02 02:39:49;;;;;;;10.00;7.68;;;22.70;99.90;;;;;;5144909;28;20045;-73
2023/09/02 02:42:22;;;;;;;7.60;7.00;;;22.70;99.90;;;;;;5145066;28;20026;-72
2023/09/02 02:44:53;;;;;;;7.53;6.82;;;22.70;99.90;;;;;;5146070;28;20027;-72
2023/09/02 02:47:24;;;;;;;7.75;6.95;;;22.80;99.90;;;;;;5146053;28;20038;-74
2023/09/02 02:49:54;;;;;;;8.80;7.53;;;22.80;99.90;;;;;;5146176;28;20085;-72
2023/09/02 02:52:25;;;;;;;9.23;8.10;;;22.80;99.90;;;;;;5144929;28;20023;-73
2023/09/02 02:54:56;;;;;;;7.90;7.10;;;22.70;99.90;;;;;;5146279;28;20042;-73
2023/09/02 02:57:27;;;;;;;10.48;8.45;;;22.70;99.90;;;;;;5146077;28;20026;-74
2023/09/02 02:59:57;;;;;;;8.45;7.65;;;22.70;99.90;;;;;;5145916;28;20105;-72
2023/09/02 03:02:28;;;;;;;8.60;7.80;;;22.70;99.90;;;;;;5146190;28;20031;-72
2023/09/02 03:04:59;;;;;;;8.82;7.93;;;22.80;99.90;;;;;;5145948;28;20030;-73
2023/09/02 03:07:30;;;;;;;8.30;7.55;;;22.80;99.90;;;;;;5145750;28;20039;-74
2023/09/02 03:10:01;;;;;;;8.93;8.18;;;22.70;99.90;;;;;;5145588;28;20113;-73
2023/09/02 03:12:32;;;;;;;8.75;7.90;;;22.80;99.90;;;;;;5145870;28;20494;-72
2023/09/02 03:15:03;;;;;;;9.00;8.20;;;22.80;99.90;;;;;;5145804;28;20027;-73
2023/09/02 03:17:34;;;;;;;8.30;7.60;;;22.90;99.90;;;;;;5145723;28;20027;-74
2023/09/02 03:20:06;;;;;;;8.77;7.97;;;22.90;99.90;;;;;;5144844;28;20023;-74
2023/09/02 03:22:41;;;;;;;8.10;7.28;;;22.80;99.90;;;;;;5144972;28;20038;-72
2023/09/02 03:25:12;;;;;;;9.57;8.15;;;23.00;99.90;;;;;;5144224;28;20050;-72
2023/09/02 03:27:43;;;;;;;10.10;8.52;;;23.10;99.90;;;;;;5144114;28;20133;-72
2023/09/02 03:30:14;;;;;;;9.73;8.73;;;22.90;99.90;;;;;;5143443;28;20153;-74
2023/09/02 03:32:45;;;;;;;9.10;8.15;;;22.90;99.90;;;;;;5144131;28;20030;-72
2023/09/02 03:35:16;;;;;;;15.13;8.90;;;23.00;99.90;;;;;;5142848;28;20034;-74
2023/09/02 03:37:47;;;;;;;10.65;7.80;;;23.00;99.90;;;;;;5144426;28;20383;-72
2023/09/02 03:40:18;;;;;;;9.32;7.90;;;22.80;99.90;;;;;;5145114;28;20034;-72
2023/09/02 03:42:48;;;;;;;10.73;8.60;;;22.90;99.90;;;;;;5145180;28;20078;-72
2023/09/02 03:45:19;;;;;;;9.45;7.85;;;22.90;99.90;;;;;;5145268;28;20102;-73
2023/09/02 03:47:50;;;;;;;9.13;7.95;;;22.90;99.90;;;;;;5145570;28;20475;-73
2023/09/02 03:50:26;;;;;;;9.20;8.00;;;23.00;99.90;;;;;;5144772;28;20042;-73
2023/09/02 03:52:56;;;;;;;9.77;8.40;;;22.90;99.90;;;;;;5145025;28;20033;-72
2023/09/02 03:55:27;;;;;;;8.13;7.40;;;22.90;99.90;;;;;;5144989;28;20027;-72
2023/09/02 03:57:58;;;;;;;13.43;8.25;;;23.00;99.90;;;;;;5145029;28;20161;-74
2023/09/02 04:00:30;;;;;;;9.00;8.10;;;22.90;99.90;;;;;;5144986;28;20637;-73
2023/09/02 04:03:01;;;;;;;10.05;9.05;;;22.90;99.90;;;;;;5143627;28;20070;-72
2023/09/02 04:05:32;;;;;;;8.60;7.80;;;23.00;99.90;;;;;;5145005;28;20097;-72
2023/09/02 04:08:03;;;;;;;9.60;8.70;;;23.20;99.90;;;;;;5144877;28;20509;-73
2023/09/02 04:10:34;;;;;;;9.52;8.73;;;23.20;99.90;;;;;;5144611;28;20121;-75
2023/09/02 04:13:04;;;;;;;10.30;9.40;;;23.30;99.90;;;;;;5144992;28;20089;-74
2023/09/02 04:15:35;;;;;;;10.40;9.40;;;23.40;99.90;;;;;;5144579;28;20034;-72
2023/09/02 04:18:06;;;;;;;11.60;10.60;;;23.30;99.90;;;;;;5144027;28;20037;-73
2023/09/02 04:20:37;;;;;;;10.23;9.43;;;23.40;99.90;;;;;;5143661;28;20062;-74
2023/09/02 04:23:08;;;;;;;9.68;8.77;;;23.60;99.90;;;;;;5143397;28;20022;-73
2023/09/02 04:25:46;;;;;;;10.32;9.10;;;23.60;99.90;;;;;;5142287;28;20034;-74
2023/09/02 04:28:18;;;;;;;9.55;8.70;;;23.70;99.90;;;;;;5143206;28;20038;-73
2023/09/02 04:30:49;;;;;;;9.20;8.30;;;23.70;99.90;;;;;;5143401;28;20027;-72
2023/09/02 04:33:23;;;;;;;8.98;8.00;;;23.80;99.90;;;;;;5144172;28;20106;-72
2023/09/02 04:35:54;;;;;;;9.27;7.47;;;23.90;99.90;;;;;;5144713;28;20027;-74
2023/09/02 04:38:26;;;;;;;8.15;7.35;;;24.00;99.90;;;;;;5144619;28;20031;-75
2023/09/02 04:41:01;;;;;;;9.02;8.02;;;24.10;99.90;;;;;;5145571;28;20050;-76
2023/09/02 04:43:32;;;;;;;8.02;7.30;;;24.20;99.90;;;;;;5148481;28;20035;-74
2023/09/02 04:46:03;;;;;;;8.05;7.25;;;24.30;99.90;;;;;;5147276;28;20469;-74
2023/09/02 04:48:35;;;;;;;7.40;6.70;;;24.40;99.90;;;;;;5147570;28;20027;-75
2023/09/02 04:51:07;;;;;;;8.23;7.07;;;24.50;99.90;;;;;;5147902;28;20058;-73
2023/09/02 04:53:38;;;;;;;8.77;7.50;;;24.50;99.90;;;;;;5147056;28;20352;-74
2023/09/02 04:56:10;;;;;;;8.38;7.47;;;24.70;99.90;;;;;;5147123;28;20019;-72
2023/09/02 04:58:41;;;;;;;8.00;7.28;;;24.80;99.90;;;;;;5147055;28;20065;-74
2023/09/02 05:01:13;;;;;;;11.05;7.65;;;24.90;99.90;;;;;;5146903;28;20023;-72
2023/09/02 05:03:43;;;;;;;9.40;8.40;;;25.00;99.90;;;;;;5146963;28;20031;-73
2023/09/02 05:06:14;;;;;;;8.68;7.88;;;25.00;99.90;;;;;;5147284;28;20022;-73
2023/09/02 05:08:45;;;;;;;9.13;8.25;;;25.10;99.90;;;;;;5147512;28;20071;-73
2023/09/02 05:11:16;;;;;;;8.65;7.68;;;25.10;99.90;;;;;;5142575;28;20042;-74
2023/09/02 05:13:50;;;;;;;11.25;8.65;;;25.10;99.90;;;;;;5143093;28;20039;-75
2023/09/02 05:16:20;;;;;;;12.20;9.23;;;25.20;99.90;;;;;;5146698;28;20145;-75
2023/09/02 05:18:51;;;;;;;10.02;9.18;;;25.30;99.90;;;;;;5143463;28;20093;-73
2023/09/02 05:21:22;;;;;;;11.32;10.32;;;25.40;99.90;;;;;;5146086;28;20030;-73
2023/09/02 05:23:53;;;;;;;11.18;10.27;;;25.40;99.90;;;;;;5146097;28;20030;-74
2023/09/02 05:26:24;;;;;;;10.77;9.88;;;25.50;99.90;;;;;;5146463;28;20644;-75
2023/09/02 05:28:55;;;;;;;11.63;10.40;;;25.50;99.90;;;;;;5145374;28;20039;-72
2023/09/02 05:31:25;;;;;;;9.98;8.95;;;25.60;99.90;;;;;;5146668;28;20034;-74
2023/09/02 05:33:56;;;;;;;10.55;9.65;;;25.60;99.90;;;;;;5147238;28;20042;-75
2023/09/02 05:36:27;;;;;;;15.18;9.50;;;25.60;99.90;;;;;;5147164;28;20101;-75
2023/09/02 05:41:39;;;;;;;9.98;9.00;;;25.60;99.90;;;;;;5429251;23;20109;-72
2023/09/02 05:44:09;;;;;;;9.13;8.23;;;25.60;99.90;;;;;;5136406;28;20019;-74
2023/09/02 05:46:40;;;;;;;13.82;8.70;;;25.60;99.90;;;;;;5131603;28;20049;-74
2023/09/02 05:49:12;;;;;;;9.35;7.85;;;25.60;99.90;;;;;;5131382;28;20038;-74
2023/09/02 05:51:43;;;;;;;9.95;8.60;;;25.80;99.90;;;;;;5138747;28;20050;-73
2023/09/02 05:54:14;;;;;;;10.02;9.23;;;25.80;99.90;;;;;;5138865;28;20110;-73
2023/09/02 05:56:47;;;;;;;12.07;9.65;;;25.80;99.90;;;;;;5137172;28;20118;-73
2023/09/02 05:59:17;;;;;;;11.30;10.40;;;25.90;99.90;;;;;;5139639;28;20026;-73
2023/09/02 06:01:49;;;;;;;12.98;11.90;;;26.00;99.90;;;;;;5140608;28;20030;-72
2023/09/02 06:04:20;;;;;;;13.05;12.05;;;26.10;99.90;;;;;;5140964;28;20026;-72
2023/09/02 06:06:51;;;;;;;14.88;13.52;;;26.30;99.90;;;;;;5138309;28;20038;-71
2023/09/02 06:09:26;;;;;;;14.18;12.75;;;26.30;99.90;;;;;;5141006;28;20454;-72
2023/09/02 06:11:57;;;;;;;10.15;9.15;;;26.20;99.90;;;;;;5121365;28;20043;-71
2023/09/02 06:14:27;;;;;;;10.57;9.15;;;26.10;99.90;;;;;;5120683;28;20086;-72
2023/09/02 06:16:58;;;;;;;9.95;9.05;;;26.20;99.90;;;;;;5120544;28;20039;-72
2023/09/02 06:19:29;;;;;;;10.55;9.25;;;26.20;99.90;;;;;;5120214;29;20079;-72
2023/09/02 06:21:59;;;;;;;9.65;8.82;;;26.40;99.90;;;;;;5120762;28;20046;-72
2023/09/02 06:24:30;;;;;;;10.02;9.05;;;26.50;99.90;;;;;;5119838;28;20029;-73
2023/09/02 06:27:03;;;;;;;12.95;9.00;;;26.50;99.90;;;;;;5120287;28;20043;-72
2023/09/02 06:29:34;;;;;;;11.13;9.45;;;26.50;99.90;;;;;;5119603;28;20123;-73
2023/09/02 06:32:05;;;;;;;9.70;8.95;;;26.50;99.90;;;;;;5118647;29;20039;-72
2023/09/02 06:34:36;;;;;;;9.95;9.10;;;26.60;99.90;;;;;;5120134;28;20039;-73
2023/09/02 06:37:07;;;;;;;10.32;9.32;;;26.70;99.90;;;;;;5119880;28;20597;-73
2023/09/02 06:42:18;;;;;;;11.38;10.48;;;26.80;99.90;;;;;;5360446;23;20055;-71
2023/09/02 06:44:53;;;;;;;12.27;11.13;;;26.80;99.90;;;;;;5125906;29;20027;-71
2023/09/02 06:47:24;;;;;;;12.55;11.32;;;26.80;99.90;;;;;;5125298;28;20027;-71
2023/09/02 06:49:55;;;;;;;12.23;11.18;;;27.00;99.90;;;;;;5126323;28;20119;-72
2023/09/02 06:52:25;;;;;;;11.88;11.05;;;27.10;99.90;;;;;;5126192;29;20620;-72
2023/09/02 06:54:56;;;;;;;11.60;10.60;;;27.10;99.90;;;;;;5126483;29;20031;-72
2023/09/02 06:57:27;;;;;;;12.95;11.70;;;27.20;99.90;;;;;;5125471;28;20031;-72
2023/09/02 06:59:58;;;;;;;12.02;10.85;;;27.30;99.90;;;;;;5125897;29;20063;-71
2023/09/02 07:02:29;;;;;;;14.15;12.65;;;27.20;99.90;;;;;;5124595;29;20159;-71
2023/09/02 07:04:59;;;;;;;11.60;10.50;;;27.10;99.90;;;;;;5123742;28;20066;-71
2023/09/02 07:07:30;;;;;;;10.93;9.70;;;27.00;99.90;;;;;;5124695;29;20043;-71
2023/09/02 07:10:01;;;;;;;11.93;10.65;;;27.30;99.90;;;;;;5124471;28;20035;-71
2023/09/02 07:12:32;;;;;;;11.10;10.20;;;27.20;99.90;;;;;;5124361;28;20573;-71
2023/09/02 07:15:03;;;;;;;9.90;9.10;;;27.10;99.90;;;;;;5124416;28;20063;-71
2023/09/02 07:17:34;;;;;;;10.90;9.90;;;27.10;99.90;;;;;;5125547;28;20027;-71
2023/09/02 07:20:06;;;;;;;10.63;9.50;;;27.50;99.90;;;;;;5125495;28;20034;-72
2023/09/02 07:22:37;;;;;;;11.50;10.52;;;27.70;99.90;;;;;;5125646;28;20391;-71
2023/09/02 07:25:08;;;;;;;11.57;9.80;;;28.00;99.90;;;;;;5125645;28;20747;-71
2023/09/02 07:27:39;;;;;;;12.63;11.57;;;27.80;99.90;;;;;;5125486;28;20530;-71
2023/09/02 07:30:10;;;;;;;12.63;11.52;;;27.80;99.90;;;;;;5125392;28;20058;-71
2023/09/02 07:32:41;;;;;;;12.48;11.57;;;28.00;99.90;;;;;;5125226;28;20027;-72
2023/09/02 07:35:11;;;;;;;13.30;12.30;;;27.80;99.90;;;;;;5125489;28;20376;-72
2023/09/02 07:37:42;;;;;;;12.68;11.55;;;27.70;99.90;;;;;;5125352;28;20034;-71
2023/09/02 07:40:13;;;;;;;13.20;12.27;;;27.70;99.90;;;;;;5125082;28;20019;-71
2023/09/02 07:42:44;;;;;;;13.10;12.18;;;28.00;99.90;;;;;;5124292;28;20101;-71
2023/09/02 07:45:15;;;;;;;13.75;12.73;;;27.90;99.90;;;;;;5125001;28;20015;-71
2023/09/02 07:47:46;;;;;;;12.93;11.85;;;27.80;99.90;;;;;;5123757;28;20027;-71
2023/09/02 07:50:17;;;;;;;13.02;11.68;;;27.80;99.90;;;;;;5123921;28;20027;-71
2023/09/02 07:52:48;;;;;;;10.65;9.68;;;27.80;99.90;;;;;;5123826;28;20432;-71
2023/09/02 07:55:19;;;;;;;11.70;10.65;;;27.80;99.90;;;;;;5123978;28;20405;-71
2023/09/02 07:57:50;;;;;;;31.70;10.40;;;27.70;99.90;;;;;;5122611;29;20035;-71
2023/09/02 08:00:21;;;;;;;10.18;9.27;;;27.70;99.90;;;;;;5123916;28;20031;-72
2023/09/02 08:02:51;;;;;;;10.13;9.43;;;27.80;99.90;;;;;;5123930;29;20078;-72
2023/09/02 08:05:22;;;;;;;11.30;8.38;;;27.80;99.90;;;;;;5125314;28;20034;-71
2023/09/02 08:07:54;;;;;;;8.60;7.82;;;27.70;99.90;;;;;;5124069;28;20472;-71
2023/09/02 08:10:25;;;;;;;9.52;8.63;;;27.70;99.90;;;;;;5125088;28;20392;-72
2023/09/02 08:12:55;;;;;;;9.07;8.27;;;27.80;99.90;;;;;;5125058;28;20019;-71
2023/09/02 08:15:26;;;;;;;9.45;8.63;;;27.70;99.90;;;;;;5126405;28;20415;-72
2023/09/02 08:17:57;;;;;;;8.82;7.93;;;27.90;99.90;;;;;;5129139;28;20015;-71
2023/09/02 08:20:30;;;;;;;9.35;8.52;;;28.00;99.90;;;;;;5129002;28;20027;-71
2023/09/02 08:23:00;;;;;;;8.88;8.18;;;27.90;99.90;;;;;;5128969;28;20074;-72
2023/09/02 08:25:31;;;;;;;8.82;7.35;;;27.80;99.90;;;;;;5128919;28;20109;-71
2023/09/02 08:28:02;;;;;;;8.50;7.70;;;27.80;99.90;;;;;;5128357;28;20178;-71
2023/09/02 08:30:33;;;;;;;9.50;8.68;;;27.80;99.90;;;;;;5128862;28;20089;-71
2023/09/02 08:33:04;;;;;;;9.05;8.25;;;27.80;99.90;;;;;;5127300;28;20027;-72
2023/09/02 08:35:38;;;;;;;13.35;8.75;;;27.80;99.90;;;;;;5128725;28;20019;-71
2023/09/02 08:38:09;;;;;;;9.65;8.65;;;27.80;99.90;;;;;;5126836;29;20480;-71
2023/09/02 08:40:43;;;;;;;9.98;7.93;;;27.80;99.90;;;;;;5128057;28;20058;-71
2023/09/02 08:43:14;;;;;;;9.43;8.45;;;27.80;99.90;;;;;;5127976;28;20035;-71
2023/09/02 08:45:49;;;;;;;12.52;8.82;;;27.80;99.90;;;;;;5128589;28;20379;-71
2023/09/02 08:48:24;;;;;;;8.68;7.97;;;28.00;99.90;;;;;;5127127;29;20501;-71
2023/09/02 08:50:56;;;;;;;9.52;8.93;;;28.10;99.90;;;;;;5128397;28;20035;-71
2023/09/02 08:53:30;;;;;;;9.52;8.73;;;27.90;99.90;;;;;;5125919;28;20023;-71
2023/09/02 08:56:01;;;;;;;11.07;10.18;;;27.80;99.90;;;;;;5128352;28;20035;-71
2023/09/02 08:58:32;;;;;;;11.30;10.13;;;27.80;99.90;;;;;;5128289;28;20054;-71
2023/09/02 09:01:03;;;;;;;10.98;10.13;;;27.80;99.90;;;;;;5128312;28;20053;-71
2023/09/02 09:03:34;;;;;;;10.90;9.95;;;27.80;99.90;;;;;;5128277;28;20024;-71
2023/09/02 09:06:10;;;;;;;11.10;10.30;;;28.00;99.90;;;;;;5127912;28;20031;-72
2023/09/02 09:08:41;;;;;;;10.68;9.75;;;28.20;99.90;;;;;;5127966;28;20039;-71
2023/09/02 09:11:14;;;;;;;9.25;6.85;;;28.10;99.90;;;;;;5127896;28;20042;-71
2023/09/02 09:13:46;;;;;;;9.25;8.38;;;28.10;99.90;;;;;;5128113;28;20035;-71
2023/09/02 09:16:22;;;;;;;15.05;9.20;;;28.20;99.90;;;;;;5128106;28;20019;-71
2023/09/02 09:18:53;;;;;;;8.77;7.95;;;28.20;99.90;;;;;;5128323;28;20028;-71
2023/09/02 09:21:24;;;;;;;11.02;7.63;;;28.50;99.90;;;;;;5128140;28;20035;-71
2023/09/02 09:23:55;;;;;;;8.55;7.45;;;28.90;99.90;;;;;;5127971;28;20028;-71
2023/09/02 09:26:27;;;;;;;8.65;7.72;;;29.00;99.90;;;;;;5127052;28;20030;-72
2023/09/02 09:28:59;;;;;;;9.80;7.90;;;28.80;99.90;;;;;;5127436;28;20499;-72
2023/09/02 09:31:30;;;;;;;7.15;6.45;;;29.00;99.90;;;;;;5127329;28;20038;-72
2023/09/02 09:34:01;;;;;;;7.50;6.75;;;29.00;99.90;;;;;;5127526;28;20454;-72
2023/09/02 09:36:33;;;;;;;6.13;5.53;;;28.90;99.90;;;;;;5126810;28;20103;-72
2023/09/02 09:39:06;;;;;;;6.85;6.22;;;28.70;99.90;;;;;;5126265;28;20023;-72
2023/09/02 09:41:48;;;;;;;11.30;7.22;;;28.80;99.90;;;;;;5124500;28;20830;-72
2023/09/02 09:44:19;;;;;;;8.95;6.55;;;28.80;99.90;;;;;;5126244;28;20620;-72
2023/09/02 09:46:53;;;;;;;27.08;15.88;;;28.90;99.90;;;;;;5126129;28;20034;-72
2023/09/02 09:49:29;;;;;;;10.10;8.73;;;28.90;99.90;;;;;;5124853;28;20039;-72
2023/09/02 09:51:59;;;;;;;8.90;7.85;;;28.90;99.90;;;;;;5126296;28;20391;-72
2023/09/02 09:54:47;;;;;;;10.77;9.48;;;28.90;99.90;;;;;;5127393;28;20027;-72
2023/09/02 09:57:30;;;;;;;8.20;7.40;;;29.30;99.90;;;;;;5125353;28;20043;-73
2023/09/02 10:00:01;;;;;;;7.90;7.13;;;29.40;99.90;;;;;;5127140;28;20027;-72
2023/09/02 10:02:33;;;;;;;11.07;7.30;;;29.50;99.90;;;;;;5125971;28;20036;-72
2023/09/02 10:05:04;;;;;;;9.35;8.23;;;29.50;99.90;;;;;;5127138;28;20031;-71
2023/09/02 10:07:35;;;;;;;9.00;7.95;;;29.50;99.90;;;;;;5126917;28;20038;-73
2023/09/02 10:10:06;;;;;;;9.75;9.05;;;29.50;99.90;;;;;;5126838;28;20047;-72
2023/09/02 10:12:37;;;;;;;9.80;7.60;;;29.80;99.90;;;;;;5126982;28;20032;-71
2023/09/02 10:15:08;;;;;;;7.40;6.80;;;29.80;99.90;;;;;;5126398;28;20031;-73
2023/09/02 10:17:43;;;;;;;8.25;7.13;;;29.80;99.90;;;;;;5126175;28;20015;-71
2023/09/02 10:20:15;;;;;;;9.88;7.38;;;29.50;99.90;;;;;;5125424;29;20042;-72
2023/09/02 10:22:49;;;;;;;7.60;6.90;;;29.20;99.90;;;;;;5124251;28;20565;-72
2023/09/02 10:25:24;;;;;;;7.32;6.63;;;29.20;99.90;;;;;;5125587;28;20027;-72
2023/09/02 10:28:09;;;;;;;11.32;6.47;;;29.50;99.90;;;;;;5125497;28;20384;-72
2023/09/02 10:30:46;;;;;;;9.52;6.72;;;29.70;99.90;;;;;;5125550;28;20028;-73
2023/09/02 10:33:29;;;;;;;11.50;7.53;;;29.80;99.90;;;;;;5126212;28;20027;-72
2023/09/02 10:36:03;;;;;;;6.72;5.65;;;30.30;99.90;;;;;;5126700;28;20097;-72
2023/09/02 10:38:38;;;;;;;15.18;8.63;;;30.30;99.90;;;;;;5126274;28;20103;-72
2023/09/02 10:41:13;;;;;;;8.70;6.90;;;30.40;99.90;;;;;;5124807;28;20043;-72
2023/09/02 10:43:46;;;;;;;13.57;6.57;;;30.10;99.90;;;;;;5119070;28;20027;-72
2023/09/02 10:46:16;;;;;;;9.85;6.50;;;30.30;99.90;;;;;;5125211;28;20038;-72
2023/09/02 10:48:49;;;;;;;8.32;7.63;;;30.40;99.90;;;;;;5110672;28;20396;-73
2023/09/02 10:51:21;;;;;;;8.80;6.70;;;30.20;99.90;;;;;;5105956;29;20046;-72
2023/09/02 10:53:52;;;;;;;9.57;6.75;;;30.20;99.90;;;;;;5105565;29;20028;-72
2023/09/02 10:56:34;;;;;;;8.98;6.50;;;30.20;99.90;;;;;;5106447;29;20042;-71
2023/09/02 10:59:07;;;;;;;8.25;6.47;;;29.80;99.90;;;;;;5113367;29;20439;-72
2023/09/02 11:01:45;;;;;;;9.35;6.53;;;29.70;99.90;;;;;;5124414;28;20049;-71
2023/09/02 11:04:43;;;;;;;7.03;6.32;;;29.60;99.90;;;;;;5119952;29;20032;-73
2023/09/02 11:07:20;;;;;;;8.15;7.30;;;29.80;99.90;;;;;;5117166;29;20058;-71
2023/09/02 11:10:01;;;;;;;10.93;7.68;;;29.60;99.90;;;;;;5119998;28;20388;-73
2023/09/02 11:12:33;;;;;;;13.95;7.88;;;29.70;99.90;;;;;;5123966;29;20031;-72
2023/09/02 11:15:11;;;;;;;8.77;6.00;;;29.60;99.90;;;;;;5124944;28;20034;-72
2023/09/02 11:17:42;;;;;;;9.20;5.40;;;29.90;99.90;;;;;;5138161;28;20047;-72
2023/09/02 11:20:19;;;;;;;10.77;5.68;;;29.70;99.90;;;;;;5124921;28;20027;-71
2023/09/02 11:23:04;;;;;;;6.80;5.07;;;29.70;99.90;;;;;;5124653;28;20036;-72
2023/09/02 11:25:37;;;;;;;7.30;6.18;;;29.70;99.90;;;;;;5125608;28;20118;-72
2023/09/02 11:28:18;;;;;;;7.45;5.55;;;29.60;99.90;;;;;;5125329;28;20122;-71
2023/09/02 11:31:04;;;;;;;10.50;7.00;;;29.40;99.90;;;;;;5124908;28;20030;-71
2023/09/02 11:33:39;;;;;;;9.48;7.20;;;29.30;99.90;;;;;;5125489;28;20042;-71
2023/09/02 11:36:15;;;;;;;115.50;11.85;;;29.00;99.90;;;;;;5124862;28;20011;-72
2023/09/02 11:38:46;;;;;;;13.63;7.65;;;28.90;99.90;;;;;;5124889;28;20095;-72
2023/09/02 11:41:23;;;;;;;10.43;8.57;;;28.80;99.90;;;;;;5121946;28;20035;-71
2023/09/02 11:43:54;;;;;;;13.32;7.88;;;28.50;99.90;;;;;;5121671;29;20019;-72
2023/09/02 11:46:25;;;;;;;11.32;9.18;;;28.60;99.90;;;;;;5124743;28;20023;-72
2023/09/02 11:48:56;;;;;;;9.77;7.72;;;28.50;99.90;;;;;;5123864;28;20481;-72
2023/09/02 11:51:26;;;;;;;9.93;7.82;;;28.50;99.90;;;;;;5122237;28;20034;-72
2023/09/02 11:53:57;;;;;;;12.52;8.48;;;28.30;99.90;;;;;;5124001;28;20038;-72
2023/09/02 11:56:28;;;;;;;11.10;9.23;;;28.30;99.90;;;;;;5123623;28;20028;-72
2023/09/02 11:58:59;;;;;;;10.40;8.77;;;28.30;99.90;;;;;;5124575;28;20436;-72
2023/09/02 12:01:30;;;;;;;13.50;8.93;;;28.20;99.90;;;;;;5124053;28;20094;-72
2023/09/02 12:04:01;;;;;;;12.85;9.50;;;28.30;99.90;;;;;;5121674;28;20066;-72
2023/09/02 12:06:31;;;;;;;12.90;10.27;;;28.10;99.90;;;;;;5125112;28;20086;-71
2023/09/02 12:09:02;;;;;;;13.38;9.68;;;28.20;99.90;;;;;;5120512;28;20055;-72
2023/09/02 12:11:33;;;;;;;15.68;9.77;;;28.30;99.90;;;;;;5116823;28;20035;-73
2023/09/02 12:14:07;;;;;;;12.30;9.93;;;28.40;99.90;;;;;;5118482;28;20038;-72
2023/09/02 12:16:38;;;;;;;11.95;8.88;;;28.60;99.90;;;;;;5116064;28;20035;-72
2023/09/02 12:19:09;;;;;;;11.68;8.38;;;28.80;99.90;;;;;;5112691;28;20038;-73
2023/09/02 12:21:41;;;;;;;9.23;7.28;;;29.00;99.90;;;;;;5113993;29;20035;-72
2023/09/02 12:24:11;;;;;;;10.02;6.55;;;29.00;99.90;;;;;;5119098;29;20031;-72
2023/09/02 12:26:47;;;;;;;13.48;7.53;;;29.10;99.90;;;;;;5124926;28;20102;-72
2023/09/02 12:29:19;;;;;;;10.50;7.07;;;29.60;99.90;;;;;;5124254;28;20122;-72
2023/09/02 12:32:00;;;;;;;9.18;7.13;;;29.70;99.90;;;;;;5115214;28;20027;-72
2023/09/02 12:34:34;;;;;;;8.63;7.00;;;30.00;99.90;;;;;;5123004;29;20031;-72
2023/09/02 12:37:18;;;;;;;7.13;6.45;;;29.70;99.90;;;;;;5108991;28;20028;-71
2023/09/02 12:39:49;;;;;;;6.63;5.60;;;30.10;99.90;;;;;;5104220;29;20027;-72
2023/09/02 12:42:25;;;;;;;6.10;5.53;;;30.10;99.90;;;;;;5104242;29;20121;-72
2023/09/02 12:45:00;;;;;;;8.27;5.72;;;30.20;99.90;;;;;;5104189;29;20048;-72
2023/09/02 12:47:31;;;;;;;6.97;6.25;;;30.10;99.90;;;;;;5104956;29;20067;-72
2023/09/02 12:50:03;;;;;;;9.60;7.53;;;30.00;99.90;;;;;;5105143;29;20047;-72
2023/09/02 12:52:34;;;;;;;8.05;7.28;;;29.80;99.90;;;;;;5103682;29;20384;-72
2023/09/02 12:55:06;;;;;;;12.82;7.45;;;29.80;99.90;;;;;;5104978;29;20027;-72
2023/09/02 12:57:37;;;;;;;11.18;6.40;;;29.60;99.90;;;;;;5105101;29;20111;-72
2023/09/02 13:00:08;;;;;;;7.80;7.10;;;29.70;99.90;;;;;;5105021;29;20160;-71
2023/09/02 13:02:39;;;;;;;9.55;6.97;;;29.50;99.90;;;;;;5107890;29;20396;-72
2023/09/02 13:05:10;;;;;;;8.93;7.22;;;29.40;99.90;;;;;;5108587;29;20031;-71
2023/09/02 13:07:41;;;;;;;8.00;6.70;;;29.50;99.90;;;;;;5108405;29;20038;-72
2023/09/02 13:10:13;;;;;;;7.53;6.93;;;29.30;99.90;;;;;;5108275;29;20078;-72
2023/09/02 13:12:46;;;;;;;7.82;7.03;;;29.20;99.90;;;;;;5108372;29;20148;-72